Time;durP1;ratioP1;P1;durP2;ratioP2;P2;SDS_P1;SDS_P2;PMS_P1;PMS_P2;Temp;Humidity;BMP_temperature;BMP_pressure;BME280_temperature;BME280_humidity;BME280_pressure;Samples;Min_cycle;Max_cycle;Signal;HPM_P1;HPM_P2
2022/03/17 00:00:45;;;;;;;10.27;6.55;;;18.90;56.80;;;;;;5029372;28;20056;-58
2022/03/17 00:03:10;;;;;;;9.52;6.13;;;18.90;56.80;;;;;;5031959;28;20032;-58
2022/03/17 00:05:37;;;;;;;10.88;6.30;;;18.80;56.80;;;;;;5029366;28;20029;-58
2022/03/17 00:08:03;;;;;;;9.60;6.20;;;18.80;56.90;;;;;;5029485;28;20155;-58
2022/03/17 00:10:29;;;;;;;11.10;6.60;;;18.80;56.90;;;;;;5029181;28;20513;-58
2022/03/17 00:12:55;;;;;;;10.10;5.85;;;18.80;56.90;;;;;;5030183;28;20038;-58
2022/03/17 00:15:20;;;;;;;11.75;6.30;;;18.80;56.90;;;;;;5030706;28;20112;-58
2022/03/17 00:17:46;;;;;;;10.00;5.85;;;18.80;56.90;;;;;;5029268;28;20025;-58
2022/03/17 00:20:12;;;;;;;11.38;6.20;;;18.70;56.90;;;;;;5029238;28;20108;-59
2022/03/17 00:22:38;;;;;;;10.10;5.90;;;18.70;57.00;;;;;;5030180;28;20040;-58
2022/03/17 00:25:05;;;;;;;10.38;5.90;;;18.70;57.00;;;;;;5060650;28;20030;-58
2022/03/17 00:27:32;;;;;;;9.95;5.85;;;18.70;56.90;;;;;;5030463;28;20065;-58
2022/03/17 00:29:57;;;;;;;9.73;5.70;;;18.70;57.00;;;;;;5027992;28;20111;-58
2022/03/17 00:32:26;;;;;;;8.85;5.40;;;18.70;57.00;;;;;;5029022;28;20475;-58
2022/03/17 00:37:35;;;;;;;9.00;5.30;;;18.60;56.90;;;;;;5029834;28;20032;-58
2022/03/17 00:40:01;;;;;;;9.98;5.53;;;18.60;57.00;;;;;;5028874;28;20096;-59
2022/03/17 00:42:27;;;;;;;10.85;5.88;;;18.60;56.90;;;;;;5029657;28;20072;-58
2022/03/17 00:44:54;;;;;;;10.20;5.53;;;18.60;57.00;;;;;;5027277;28;20029;-58
2022/03/17 00:47:20;;;;;;;9.02;5.22;;;18.60;57.10;;;;;;5027630;28;21002;-58
2022/03/17 00:49:46;;;;;;;7.90;5.00;;;18.60;57.10;;;;;;5027689;28;20072;-58
2022/03/17 00:52:12;;;;;;;8.82;5.30;;;18.50;57.00;;;;;;5060601;28;20114;-59
2022/03/17 00:54:39;;;;;;;9.40;5.10;;;18.50;57.10;;;;;;5028696;28;20497;-58
2022/03/17 00:57:12;;;;;;;9.05;5.40;;;18.50;57.10;;;;;;5028316;28;20044;-58
2022/03/17 00:59:38;;;;;;;9.77;5.38;;;18.50;57.00;;;;;;5026694;28;20021;-58
2022/03/17 01:02:04;;;;;;;9.80;5.35;;;18.50;57.10;;;;;;5028126;28;20038;-59
2022/03/17 01:04:30;;;;;;;9.38;5.22;;;18.50;57.10;;;;;;5027635;28;20021;-58
2022/03/17 01:06:56;;;;;;;8.73;5.30;;;18.40;57.10;;;;;;5026698;28;20065;-58
2022/03/17 01:09:21;;;;;;;10.05;5.28;;;18.40;57.10;;;;;;5029637;28;20026;-58
2022/03/17 01:11:47;;;;;;;10.10;5.50;;;18.40;57.10;;;;;;5027447;28;20768;-58
2022/03/17 01:14:13;;;;;;;9.48;5.22;;;18.40;57.20;;;;;;5027245;28;20418;-58
2022/03/17 01:16:40;;;;;;;9.27;5.35;;;18.40;57.50;;;;;;5027941;28;20025;-58
2022/03/17 01:19:06;;;;;;;9.43;5.03;;;18.40;57.30;;;;;;5027483;28;20026;-58
2022/03/17 01:21:31;;;;;;;8.32;4.65;;;18.40;57.60;;;;;;5024984;28;20033;-58
2022/03/17 01:23:57;;;;;;;9.32;5.05;;;18.40;57.50;;;;;;5027903;28;20018;-58
2022/03/17 01:26:23;;;;;;;8.98;4.88;;;18.30;57.60;;;;;;5026412;28;20128;-58
2022/03/17 01:28:48;;;;;;;7.75;4.60;;;18.30;57.30;;;;;;5027593;28;20029;-59
2022/03/17 01:31:14;;;;;;;9.65;5.13;;;18.30;57.60;;;;;;5026954;28;20038;-58
2022/03/17 01:33:39;;;;;;;8.50;4.53;;;18.30;57.80;;;;;;5027508;28;20069;-58
2022/03/17 01:36:05;;;;;;;8.98;4.93;;;18.30;57.80;;;;;;5028441;28;20504;-58
2022/03/17 01:38:31;;;;;;;8.25;4.57;;;18.20;57.90;;;;;;5026663;28;20033;-58
2022/03/17 01:40:56;;;;;;;8.55;4.70;;;18.20;57.50;;;;;;4984831;28;1221460;-59
2022/03/17 01:43:22;;;;;;;7.53;4.65;;;18.20;58.00;;;;;;5028215;28;20162;-58
2022/03/17 01:45:48;;;;;;;7.97;4.22;;;18.20;57.70;;;;;;5027985;28;20395;-59
2022/03/17 01:48:13;;;;;;;8.85;4.70;;;18.20;58.00;;;;;;5028048;28;20025;-59
2022/03/17 01:50:39;;;;;;;9.35;4.60;;;18.20;58.00;;;;;;5026329;28;20183;-58
2022/03/17 01:53:05;;;;;;;7.80;4.60;;;18.20;58.10;;;;;;5028085;28;20021;-58
2022/03/17 01:55:30;;;;;;;7.45;4.32;;;18.20;58.00;;;;;;5027977;28;20040;-59
2022/03/17 01:57:57;;;;;;;8.23;4.75;;;18.10;58.10;;;;;;5028027;28;20429;-58
2022/03/17 02:00:22;;;;;;;9.25;4.35;;;18.10;58.10;;;;;;5029331;28;20065;-58
2022/03/17 02:02:49;;;;;;;7.68;4.20;;;18.10;58.10;;;;;;5027455;28;20079;-60
2022/03/17 02:05:15;;;;;;;8.55;4.28;;;18.10;58.30;;;;;;5027131;28;20184;-58
2022/03/17 02:07:43;;;;;;;6.90;3.97;;;18.10;58.10;;;;;;5027392;28;20555;-59
2022/03/17 02:10:09;;;;;;;7.63;4.05;;;18.10;58.40;;;;;;5026706;28;20033;-59
2022/03/17 02:15:19;;;;;;;7.13;4.05;;;18.00;58.20;;;;;;5027637;28;20056;-58
2022/03/17 02:17:44;;;;;;;7.20;4.05;;;18.00;58.50;;;;;;5027336;28;20502;-58
2022/03/17 02:20:12;;;;;;;7.68;4.10;;;18.00;58.20;;;;;;5027469;28;20099;-58
2022/03/17 02:22:41;;;;;;;9.20;4.22;;;18.00;58.30;;;;;;5058800;28;20033;-58
2022/03/17 02:27:51;;;;;;;8.30;4.03;;;18.00;58.20;;;;;;5026167;28;20072;-58
2022/03/17 02:30:18;;;;;;;7.30;4.00;;;18.00;58.30;;;;;;5028860;28;20061;-58
2022/03/17 02:32:44;;;;;;;7.50;3.75;;;17.90;58.40;;;;;;5026967;28;20029;-58
2022/03/17 02:35:12;;;;;;;6.75;3.75;;;17.90;58.20;;;;;;5026695;28;20028;-58
2022/03/17 02:37:37;;;;;;;7.68;3.70;;;17.90;58.50;;;;;;5026914;28;20056;-59
2022/03/17 02:40:05;;;;;;;7.45;3.90;;;17.90;58.40;;;;;;5027071;28;20017;-58
2022/03/17 02:42:31;;;;;;;7.30;3.92;;;17.90;58.50;;;;;;5027964;28;20041;-58
2022/03/17 02:44:58;;;;;;;7.70;3.90;;;17.90;58.30;;;;;;5027226;28;20638;-59
2022/03/17 02:47:24;;;;;;;8.38;3.88;;;17.90;58.50;;;;;;5026876;28;20069;-58
2022/03/17 02:49:50;;;;;;;6.10;3.38;;;17.80;57.90;;;;;;5022660;28;20402;-58
2022/03/17 02:52:15;;;;;;;8.05;3.90;;;17.80;58.10;;;;;;5027041;28;20048;-58
2022/03/17 02:54:41;;;;;;;7.47;3.65;;;17.80;58.00;;;;;;5022960;28;20490;-58
2022/03/17 02:57:07;;;;;;;7.55;3.80;;;17.80;57.90;;;;;;5028126;28;20043;-58
2022/03/17 02:59:33;;;;;;;6.40;3.58;;;17.80;58.00;;;;;;5026807;28;20125;-59
2022/03/17 03:02:04;;;;;;;7.65;3.72;;;17.80;58.20;;;;;;5026901;28;20116;-58
2022/03/17 03:04:31;;;;;;;6.00;3.33;;;17.80;58.20;;;;;;5026825;28;20032;-58
2022/03/17 03:06:56;;;;;;;5.90;3.28;;;17.80;58.10;;;;;;5026974;28;20120;-58
2022/03/17 03:09:22;;;;;;;5.47;3.13;;;17.80;58.00;;;;;;5027224;28;20108;-58
2022/03/17 03:11:47;;;;;;;6.32;3.35;;;17.80;57.70;;;;;;5026273;28;20084;-58
2022/03/17 03:14:13;;;;;;;6.47;3.42;;;17.70;57.80;;;;;;5027229;28;20056;-58
2022/03/17 03:16:39;;;;;;;7.22;3.47;;;17.70;57.70;;;;;;5026173;28;20122;-58
2022/03/17 03:19:04;;;;;;;7.07;3.40;;;17.70;57.80;;;;;;5027102;28;20041;-58
2022/03/17 03:21:30;;;;;;;7.45;3.78;;;17.70;57.60;;;;;;5028536;28;20102;-59
2022/03/17 03:23:55;;;;;;;5.97;3.00;;;17.70;57.60;;;;;;5025687;28;20454;-58
2022/03/17 03:26:21;;;;;;;5.90;3.15;;;17.70;57.70;;;;;;5026317;28;20103;-59
2022/03/17 03:28:47;;;;;;;7.45;3.55;;;17.70;57.60;;;;;;5026076;28;20026;-58
2022/03/17 03:31:12;;;;;;;5.47;3.28;;;17.70;57.60;;;;;;5026359;28;20080;-58
2022/03/17 03:33:38;;;;;;;6.57;3.42;;;17.70;57.50;;;;;;5026593;28;20021;-58
2022/03/17 03:38:50;;;;;;;6.97;3.17;;;17.60;57.50;;;;;;5023790;28;20134;-59
2022/03/17 03:41:16;;;;;;;7.07;3.00;;;17.60;57.50;;;;;;5020467;28;20334;-58
2022/03/17 03:43:41;;;;;;;6.68;3.05;;;17.60;57.50;;;;;;5026082;28;20013;-58
2022/03/17 03:46:07;;;;;;;5.45;3.08;;;17.60;57.60;;;;;;5026777;28;20096;-58
2022/03/17 03:48:33;;;;;;;5.85;2.97;;;17.60;57.60;;;;;;5027865;28;20769;-59
2022/03/17 03:50:59;;;;;;;5.95;3.33;;;17.60;57.50;;;;;;5026362;28;20042;-58
2022/03/17 03:54:12;;;;;;;5.88;3.05;;;17.60;57.40;;;;;;5025896;28;20030;-58
2022/03/17 03:56:10;;;;;;;7.13;3.20;;;17.60;57.40;;;;;;5021678;28;20045;-59
2022/03/17 03:58:36;;;;;;;6.35;2.90;;;17.50;57.40;;;;;;5025457;28;20359;-58
2022/03/17 04:01:01;;;;;;;6.45;3.15;;;17.50;57.30;;;;;;5026033;28;20418;-59
2022/03/17 04:03:28;;;;;;;6.60;2.85;;;17.50;57.30;;;;;;5025227;28;20034;-58
2022/03/17 04:05:53;;;;;;;6.10;3.08;;;17.50;57.30;;;;;;5026945;28;20037;-58
2022/03/17 04:08:19;;;;;;;4.93;2.70;;;17.50;57.30;;;;;;5025955;28;20044;-58
2022/03/17 04:10:45;;;;;;;6.50;3.05;;;17.50;57.30;;;;;;5026417;28;20120;-58
2022/03/17 04:13:10;;;;;;;5.90;2.85;;;17.50;57.30;;;;;;5026471;28;20127;-58
2022/03/17 04:15:36;;;;;;;6.00;2.95;;;17.50;57.30;;;;;;5026405;28;20055;-58
2022/03/17 04:18:02;;;;;;;6.70;3.08;;;17.50;57.30;;;;;;5026393;28;20116;-58
2022/03/17 04:20:27;;;;;;;6.15;3.00;;;17.50;57.30;;;;;;5025435;28;20088;-59
2022/03/17 04:22:53;;;;;;;6.60;3.15;;;17.50;57.30;;;;;;5026008;28;20036;-58
2022/03/17 04:25:19;;;;;;;4.65;2.50;;;17.40;57.20;;;;;;5025889;28;20116;-58
2022/03/17 04:27:45;;;;;;;6.22;2.90;;;17.40;57.20;;;;;;5025795;28;20060;-58
2022/03/17 04:30:10;;;;;;;6.15;2.70;;;17.40;57.20;;;;;;5025824;28;20030;-59
2022/03/17 04:32:36;;;;;;;5.63;2.72;;;17.40;57.20;;;;;;5026400;28;20409;-58
2022/03/17 04:35:02;;;;;;;5.82;2.80;;;17.40;57.20;;;;;;5029006;28;20816;-58
2022/03/17 04:37:27;;;;;;;6.18;2.78;;;17.40;57.20;;;;;;5029729;28;20021;-58
2022/03/17 04:39:53;;;;;;;5.25;2.70;;;17.40;57.20;;;;;;5029187;28;20446;-58
2022/03/17 04:42:19;;;;;;;6.50;2.72;;;17.40;57.20;;;;;;5030204;28;20099;-59
2022/03/17 04:44:44;;;;;;;6.15;2.90;;;17.40;57.20;;;;;;5028740;28;20036;-58
2022/03/17 04:47:10;;;;;;;6.65;2.55;;;17.30;57.10;;;;;;5028508;28;20029;-58
2022/03/17 04:49:36;;;;;;;4.90;2.50;;;17.30;57.20;;;;;;5028737;28;20052;-58
2022/03/17 04:52:01;;;;;;;6.70;2.67;;;17.30;57.30;;;;;;5029133;28;20084;-58
2022/03/17 04:54:27;;;;;;;5.63;2.58;;;17.30;57.30;;;;;;5030696;28;20025;-58
2022/03/17 04:56:53;;;;;;;4.85;2.50;;;17.30;57.30;;;;;;5029609;28;20627;-59
2022/03/17 04:59:20;;;;;;;5.22;2.50;;;17.30;57.30;;;;;;5029566;28;20029;-58
2022/03/17 05:01:46;;;;;;;7.00;2.50;;;17.30;57.40;;;;;;5027274;28;20033;-58
2022/03/17 05:04:12;;;;;;;5.82;2.60;;;17.30;57.30;;;;;;5028656;28;20032;-58
2022/03/17 05:06:38;;;;;;;5.47;2.78;;;17.30;57.30;;;;;;5027582;28;20034;-58
2022/03/17 05:09:05;;;;;;;4.55;2.40;;;17.30;57.40;;;;;;5029027;28;20029;-58
2022/03/17 05:11:32;;;;;;;6.03;2.67;;;17.20;57.40;;;;;;5028874;28;20051;-59
2022/03/17 05:13:58;;;;;;;4.63;2.42;;;17.20;57.30;;;;;;5057110;28;20025;-58
2022/03/17 05:16:23;;;;;;;4.70;2.50;;;17.20;57.30;;;;;;5028091;28;20195;-58
2022/03/17 05:18:51;;;;;;;5.85;2.30;;;17.20;57.30;;;;;;5028515;28;20022;-59
2022/03/17 05:21:19;;;;;;;5.40;2.47;;;17.20;57.30;;;;;;5028661;28;20037;-58
2022/03/17 05:23:44;;;;;;;4.88;2.22;;;17.20;57.30;;;;;;5027058;28;20025;-58
2022/03/17 05:26:10;;;;;;;5.53;2.17;;;17.20;57.40;;;;;;5027220;28;20383;-59
2022/03/17 05:28:36;;;;;;;6.38;2.50;;;17.20;57.40;;;;;;5028119;28;20088;-58
2022/03/17 05:31:02;;;;;;;4.32;2.15;;;17.10;57.40;;;;;;5026006;28;20037;-58
2022/03/17 05:33:27;;;;;;;4.75;2.28;;;17.10;57.50;;;;;;5024550;28;20557;-58
2022/03/17 05:35:53;;;;;;;4.38;2.38;;;17.10;57.50;;;;;;5027201;28;20148;-58
2022/03/17 05:38:19;;;;;;;4.82;2.33;;;17.10;57.50;;;;;;5017639;28;20060;-58
2022/03/17 05:40:45;;;;;;;4.32;2.30;;;17.10;57.50;;;;;;5026557;28;20045;-58
2022/03/17 05:43:11;;;;;;;4.63;2.47;;;17.10;57.50;;;;;;5026220;28;20033;-58
2022/03/17 05:45:37;;;;;;;5.03;2.35;;;17.10;57.50;;;;;;5026665;28;20017;-58
2022/03/17 05:48:04;;;;;;;5.82;2.72;;;17.10;57.50;;;;;;5026635;28;20029;-58
2022/03/17 05:50:32;;;;;;;4.45;2.20;;;17.10;57.60;;;;;;5026507;28;20045;-58
2022/03/17 05:52:58;;;;;;;6.63;2.28;;;17.00;57.60;;;;;;5020730;28;20030;-59
2022/03/17 05:55:24;;;;;;;6.50;2.38;;;17.10;58.50;;;;;;5024829;28;20024;-58
2022/03/17 05:57:51;;;;;;;5.18;2.38;;;17.10;59.30;;;;;;5025467;28;20064;-58
2022/03/17 06:00:18;;;;;;;6.47;2.33;;;17.00;59.30;;;;;;5025468;28;20017;-59
2022/03/17 06:02:44;;;;;;;4.85;2.28;;;17.10;59.50;;;;;;5022337;28;20071;-58
2022/03/17 06:05:10;;;;;;;5.35;2.17;;;17.00;60.30;;;;;;5025353;28;20049;-58
2022/03/17 06:07:39;;;;;;;5.22;2.20;;;17.10;59.20;;;;;;5025941;28;20064;-58
2022/03/17 06:10:07;;;;;;;5.97;2.35;;;17.10;59.20;;;;;;5022074;28;20021;-58
2022/03/17 06:12:33;;;;;;;3.63;1.95;;;17.10;59.20;;;;;;5024473;28;20674;-58
2022/03/17 06:14:58;;;;;;;5.57;2.30;;;17.10;59.30;;;;;;5022802;28;20018;-58
2022/03/17 06:17:38;;;;;;;6.28;2.47;;;17.10;59.30;;;;;;5025771;28;20037;-58
2022/03/17 06:20:04;;;;;;;7.85;2.45;;;17.10;59.40;;;;;;5020782;28;20036;-58
2022/03/17 06:22:30;;;;;;;6.75;2.40;;;17.10;59.80;;;;;;5020248;28;20477;-58
2022/03/17 06:24:56;;;;;;;7.72;2.25;;;17.10;60.20;;;;;;5020985;28;20429;-58
2022/03/17 06:27:22;;;;;;;5.82;2.00;;;17.10;60.50;;;;;;5027072;28;20033;-57
2022/03/17 06:29:47;;;;;;;8.95;2.70;;;17.10;60.60;;;;;;5017329;28;20029;-58
2022/03/17 06:32:13;;;;;;;7.13;2.17;;;17.10;60.60;;;;;;5024972;28;20041;-58
2022/03/17 06:34:38;;;;;;;5.95;2.20;;;17.10;60.90;;;;;;5027147;28;20024;-58
2022/03/17 06:37:04;;;;;;;8.70;2.20;;;17.10;60.90;;;;;;5022920;28;20033;-58
2022/03/17 06:39:30;;;;;;;6.85;2.35;;;17.10;60.90;;;;;;5027903;28;20036;-58
2022/03/17 06:41:56;;;;;;;10.82;2.50;;;17.10;60.90;;;;;;5021551;28;20064;-58
2022/03/17 06:44:22;;;;;;;7.57;2.47;;;17.10;60.90;;;;;;5027276;28;20030;-58
2022/03/17 06:46:47;;;;;;;6.55;2.10;;;17.10;60.90;;;;;;5026486;28;20028;-58
2022/03/17 06:49:13;;;;;;;7.85;2.40;;;17.00;60.90;;;;;;5026026;28;20391;-58
2022/03/17 06:51:39;;;;;;;7.80;2.42;;;17.00;60.90;;;;;;5026567;28;20092;-57
2022/03/17 06:54:08;;;;;;;6.22;2.10;;;17.00;61.00;;;;;;5027623;28;20025;-56
2022/03/17 06:56:33;;;;;;;5.45;2.00;;;17.00;61.00;;;;;;5024006;28;20037;-58
2022/03/17 06:58:59;;;;;;;4.80;2.22;;;17.00;61.00;;;;;;5027129;28;20495;-57
2022/03/17 07:01:25;;;;;;;8.82;2.35;;;17.00;61.00;;;;;;5025398;28;20036;-57
2022/03/17 07:03:50;;;;;;;8.50;2.30;;;17.00;60.80;;;;;;5026008;28;20028;-57
2022/03/17 07:06:16;;;;;;;6.90;2.05;;;16.90;60.40;;;;;;5028918;28;20030;-57
2022/03/17 07:08:42;;;;;;;6.10;2.25;;;17.00;60.60;;;;;;5026471;28;20033;-57
2022/03/17 07:11:07;;;;;;;5.47;2.10;;;16.90;60.60;;;;;;5021908;28;20033;-57
2022/03/17 07:13:33;;;;;;;9.02;2.33;;;16.90;60.70;;;;;;5027344;28;20032;-57
2022/03/17 07:16:02;;;;;;;8.85;2.10;;;16.90;60.60;;;;;;5026808;28;20064;-57
2022/03/17 07:18:28;;;;;;;6.32;2.03;;;16.90;60.60;;;;;;5027693;28;20036;-57
2022/03/17 07:20:57;;;;;;;9.30;2.33;;;16.90;60.60;;;;;;5027207;28;20040;-57
2022/03/17 07:23:23;;;;;;;5.38;1.98;;;16.90;60.60;;;;;;5027130;28;20025;-57
2022/03/17 07:25:49;;;;;;;4.82;2.05;;;16.90;60.50;;;;;;5026412;28;20037;-57
2022/03/17 07:28:15;;;;;;;6.05;2.20;;;16.90;61.50;;;;;;5027264;28;20029;-57
2022/03/17 07:30:41;;;;;;;8.73;2.20;;;16.90;60.50;;;;;;5025820;28;20046;-57
2022/03/17 07:33:06;;;;;;;7.22;2.00;;;16.90;60.50;;;;;;5027053;28;20667;-57
2022/03/17 07:35:33;;;;;;;7.43;2.35;;;16.90;60.50;;;;;;5026636;28;20041;-57
2022/03/17 07:37:59;;;;;;;5.03;2.03;;;16.90;60.50;;;;;;5027156;28;20025;-57
2022/03/17 07:40:26;;;;;;;6.43;2.08;;;16.90;60.50;;;;;;5058569;28;20041;-57
2022/03/17 07:42:51;;;;;;;5.97;2.20;;;16.90;60.40;;;;;;5026186;28;20052;-57
2022/03/17 07:45:17;;;;;;;5.15;1.98;;;16.80;60.30;;;;;;5027389;28;20033;-57
2022/03/17 07:47:50;;;;;;;5.35;2.00;;;16.90;60.40;;;;;;5025588;28;20030;-57
2022/03/17 07:50:16;;;;;;;5.45;2.10;;;16.90;60.50;;;;;;5025631;28;20037;-57
2022/03/17 07:52:42;;;;;;;4.07;1.83;;;16.90;60.30;;;;;;5025896;28;20018;-57
2022/03/17 07:55:08;;;;;;;7.10;2.30;;;16.90;60.40;;;;;;5026828;28;20099;-57
2022/03/17 07:57:35;;;;;;;7.05;2.10;;;16.90;60.30;;;;;;5025370;28;20374;-57
2022/03/17 08:00:01;;;;;;;5.78;1.90;;;16.90;60.30;;;;;;5057019;28;20034;-57
2022/03/17 08:02:26;;;;;;;7.05;2.03;;;16.90;60.30;;;;;;5019251;28;20021;-57
2022/03/17 08:04:53;;;;;;;7.13;1.90;;;16.90;60.20;;;;;;5026410;28;20026;-57
2022/03/17 08:07:19;;;;;;;4.22;1.95;;;16.90;60.20;;;;;;5026524;28;20025;-57
2022/03/17 08:09:45;;;;;;;5.50;1.90;;;16.90;60.10;;;;;;5029362;28;20065;-57
2022/03/17 08:12:11;;;;;;;6.53;2.10;;;16.90;60.00;;;;;;5031196;28;20116;-57
2022/03/17 08:14:37;;;;;;;6.63;2.00;;;16.90;60.00;;;;;;5029808;28;20101;-57
2022/03/17 08:17:02;;;;;;;5.32;1.77;;;16.90;59.90;;;;;;5029378;28;20087;-57
2022/03/17 08:19:28;;;;;;;5.38;1.80;;;16.90;59.90;;;;;;5029660;28;20034;-57
2022/03/17 08:21:56;;;;;;;5.82;1.90;;;16.90;59.90;;;;;;5030108;28;20021;-57
2022/03/17 08:24:21;;;;;;;5.63;1.90;;;16.90;59.80;;;;;;5031080;28;20425;-57
2022/03/17 08:26:47;;;;;;;5.45;1.80;;;16.90;59.80;;;;;;5029840;28;20021;-57
2022/03/17 08:29:14;;;;;;;4.68;1.90;;;16.90;59.70;;;;;;5029589;28;20513;-57
2022/03/17 08:31:40;;;;;;;4.68;1.70;;;16.90;59.80;;;;;;5029651;28;20037;-57
2022/03/17 08:34:05;;;;;;;5.55;1.80;;;16.90;59.70;;;;;;5029246;28;20025;-57
2022/03/17 08:36:31;;;;;;;5.95;1.63;;;16.90;59.70;;;;;;5029680;28;20033;-57
2022/03/17 08:38:57;;;;;;;4.68;1.70;;;16.90;59.70;;;;;;5029488;28;20029;-57
2022/03/17 08:41:22;;;;;;;5.05;1.75;;;16.90;59.70;;;;;;5032132;28;20056;-57
2022/03/17 08:43:48;;;;;;;5.03;1.98;;;16.90;59.70;;;;;;5029213;28;20032;-57
2022/03/17 08:51:43;;;;;;;4.63;1.67;;;17.00;59.80;;;;;;5022477;28;20048;-57
2022/03/17 08:54:10;;;;;;;5.93;1.95;;;17.00;59.80;;;;;;5025781;28;20566;-57
2022/03/17 08:56:36;;;;;;;4.05;1.75;;;17.00;59.80;;;;;;5027715;28;20105;-57
2022/03/17 08:59:03;;;;;;;4.80;1.85;;;17.00;59.80;;;;;;5029467;28;20447;-57
2022/03/17 09:01:29;;;;;;;4.63;1.90;;;17.00;59.80;;;;;;5027321;28;20065;-57
2022/03/17 09:03:55;;;;;;;4.70;1.70;;;17.00;59.80;;;;;;5029224;28;20508;-57
2022/03/17 09:06:21;;;;;;;5.40;2.00;;;17.00;59.70;;;;;;5031145;28;20025;-57
2022/03/17 09:08:47;;;;;;;5.97;1.83;;;17.00;59.80;;;;;;5060901;28;20040;-57
2022/03/17 09:11:14;;;;;;;4.57;1.70;;;17.00;59.70;;;;;;5026943;28;20402;-57
2022/03/17 09:13:40;;;;;;;5.85;1.60;;;17.00;59.70;;;;;;5026052;28;20556;-57
2022/03/17 09:16:06;;;;;;;4.40;1.60;;;17.00;59.70;;;;;;5028918;28;20109;-57
2022/03/17 09:18:32;;;;;;;5.45;2.00;;;17.00;59.60;;;;;;5029296;28;20037;-57
2022/03/17 09:20:59;;;;;;;4.10;1.67;;;17.00;59.60;;;;;;5024360;28;20029;-57
2022/03/17 09:23:25;;;;;;;4.03;1.63;;;17.00;59.50;;;;;;5022705;28;20022;-57
2022/03/17 09:25:51;;;;;;;5.82;1.80;;;17.00;59.50;;;;;;5026139;28;20038;-57
2022/03/17 09:28:17;;;;;;;4.38;1.70;;;17.00;59.40;;;;;;5024751;28;20401;-58
2022/03/17 09:30:42;;;;;;;3.38;1.60;;;17.10;59.50;;;;;;5024025;28;20037;-57
2022/03/17 09:33:09;;;;;;;2.92;1.60;;;17.00;59.40;;;;;;5029684;28;20104;-57
2022/03/17 09:35:34;;;;;;;5.55;2.00;;;17.10;59.50;;;;;;5028001;28;20071;-58
2022/03/17 09:38:01;;;;;;;4.28;1.60;;;17.10;59.30;;;;;;5029341;28;20445;-57
2022/03/17 09:40:26;;;;;;;5.95;1.70;;;17.10;59.30;;;;;;5027622;28;20508;-57
2022/03/17 09:43:18;;;;;;;3.90;1.70;;;17.10;59.30;;;;;;5028735;28;20044;-57
2022/03/17 09:45:42;;;;;;;4.97;1.75;;;17.10;59.20;;;;;;5027926;28;20056;-57
2022/03/17 09:48:12;;;;;;;4.05;1.52;;;17.10;59.20;;;;;;5029257;28;20112;-57
2022/03/17 09:50:38;;;;;;;4.40;1.60;;;17.20;59.10;;;;;;5028195;28;20533;-57
2022/03/17 09:53:05;;;;;;;3.70;1.50;;;17.20;59.10;;;;;;5022490;28;20072;-57
2022/03/17 09:55:31;;;;;;;5.20;1.35;;;17.20;59.00;;;;;;5058989;28;20034;-58
2022/03/17 09:57:57;;;;;;;4.68;1.75;;;17.20;58.90;;;;;;5027631;28;24619;-57
2022/03/17 10:00:47;;;;;;;5.07;1.65;;;17.20;58.90;;;;;;5028513;28;20033;-57
2022/03/17 10:03:08;;;;;;;3.25;1.23;;;17.20;58.90;;;;;;5052900;28;20026;-57
2022/03/17 10:05:34;;;;;;;4.65;1.90;;;17.30;59.40;;;;;;5027243;28;20091;-57
2022/03/17 10:08:00;;;;;;;5.05;1.55;;;17.30;59.90;;;;;;5024400;28;20033;-58
2022/03/17 10:10:36;;;;;;;3.63;1.40;;;17.30;60.00;;;;;;5026968;28;20022;-57
2022/03/17 10:13:28;;;;;;;2.83;1.40;;;17.40;60.00;;;;;;5026850;28;20075;-58
2022/03/17 10:16:12;;;;;;;3.50;1.52;;;17.50;60.20;;;;;;5024550;28;20527;-58
2022/03/17 10:18:38;;;;;;;3.00;1.30;;;17.50;60.20;;;;;;5025146;28;20498;-58
2022/03/17 10:21:13;;;;;;;3.28;1.60;;;17.50;60.30;;;;;;5020607;28;20026;-57
2022/03/17 10:23:46;;;;;;;4.07;1.40;;;17.50;60.20;;;;;;5026145;28;20498;-58
2022/03/17 10:26:12;;;;;;;3.65;1.52;;;17.50;60.30;;;;;;5020591;28;20507;-58
2022/03/17 10:28:40;;;;;;;4.03;1.48;;;17.50;60.20;;;;;;5026171;28;20049;-57
2022/03/17 10:31:07;;;;;;;4.72;1.50;;;17.50;60.20;;;;;;5022260;28;20120;-58
2022/03/17 10:33:33;;;;;;;4.60;1.70;;;17.50;60.20;;;;;;5027531;28;20037;-58
2022/03/17 10:36:21;;;;;;;3.65;1.60;;;17.60;60.10;;;;;;5026871;28;20021;-58
2022/03/17 10:38:47;;;;;;;4.13;1.35;;;17.60;60.10;;;;;;5026696;28;20576;-58
2022/03/17 10:41:13;;;;;;;3.25;1.40;;;17.60;60.10;;;;;;5026671;28;20050;-58
2022/03/17 10:43:41;;;;;;;4.32;1.40;;;17.60;60.00;;;;;;5026296;28;20135;-58
2022/03/17 10:46:15;;;;;;;3.30;1.40;;;17.70;59.80;;;;;;5027322;28;20068;-57
2022/03/17 10:48:56;;;;;;;4.25;1.77;;;17.70;59.80;;;;;;5027301;28;20827;-58
2022/03/17 10:51:38;;;;;;;3.28;1.13;;;17.70;59.60;;;;;;5026617;28;20782;-57
2022/03/17 10:54:20;;;;;;;3.97;1.60;;;17.70;59.50;;;;;;5026583;28;20411;-58
2022/03/17 10:57:05;;;;;;;4.15;1.50;;;17.80;59.40;;;;;;5025768;28;20751;-57
2022/03/17 10:59:47;;;;;;;3.83;1.55;;;17.80;59.30;;;;;;5026376;28;20049;-58
2022/03/17 11:02:14;;;;;;;2.55;1.30;;;17.80;59.20;;;;;;5023957;28;20098;-58
2022/03/17 11:04:41;;;;;;;3.60;1.40;;;17.90;59.20;;;;;;5026114;28;20022;-58
2022/03/17 11:07:10;;;;;;;3.92;1.30;;;17.90;59.10;;;;;;5025998;28;20061;-58
2022/03/17 11:09:38;;;;;;;5.35;1.55;;;17.90;59.00;;;;;;5027189;28;20501;-57
2022/03/17 11:12:07;;;;;;;3.47;1.27;;;18.00;58.90;;;;;;5026809;28;20100;-57
2022/03/17 11:14:33;;;;;;;2.80;1.25;;;18.00;58.90;;;;;;5026503;28;20022;-58
2022/03/17 11:16:58;;;;;;;3.25;1.27;;;18.00;58.90;;;;;;5056635;28;20041;-58
2022/03/17 11:19:24;;;;;;;3.33;1.23;;;18.00;58.90;;;;;;5025090;28;20033;-57
2022/03/17 11:22:10;;;;;;;4.18;1.30;;;18.10;58.80;;;;;;5019743;28;20048;-58
2022/03/17 11:24:37;;;;;;;3.85;1.50;;;18.10;58.70;;;;;;5027631;28;20021;-58
2022/03/17 11:27:08;;;;;;;2.85;1.30;;;18.10;58.60;;;;;;5058037;28;20029;-58
2022/03/17 11:29:38;;;;;;;2.83;1.25;;;18.20;58.40;;;;;;5025720;28;20049;-58
2022/03/17 11:32:08;;;;;;;4.20;1.20;;;18.20;58.50;;;;;;5025725;28;20509;-58
2022/03/17 11:34:37;;;;;;;5.57;1.60;;;18.30;58.60;;;;;;5026741;28;20029;-58
2022/03/17 11:37:24;;;;;;;6.20;1.40;;;18.30;58.40;;;;;;5025520;28;20040;-58
2022/03/17 11:40:13;;;;;;;3.00;1.25;;;18.30;58.20;;;;;;5024374;28;20030;-58
2022/03/17 11:42:56;;;;;;;3.10;1.23;;;18.40;58.10;;;;;;5027594;28;20041;-58
2022/03/17 11:45:22;;;;;;;3.53;1.20;;;18.40;58.10;;;;;;5030259;28;20402;-58
2022/03/17 11:47:55;;;;;;;4.50;1.45;;;18.40;57.90;;;;;;5030667;28;20034;-58
2022/03/17 11:50:22;;;;;;;4.13;1.40;;;18.40;57.80;;;;;;5028911;28;20021;-58
2022/03/17 11:53:21;;;;;;;4.30;1.35;;;18.50;57.80;;;;;;5030476;28;20036;-57
2022/03/17 11:55:48;;;;;;;4.10;1.20;;;18.40;57.80;;;;;;5038184;28;20036;-58
2022/03/17 11:58:23;;;;;;;3.92;1.50;;;18.50;57.80;;;;;;5033112;28;20622;-58
2022/03/17 12:00:53;;;;;;;4.60;1.50;;;18.50;57.80;;;;;;5034456;28;20104;-58
2022/03/17 12:03:29;;;;;;;3.85;1.25;;;18.60;57.80;;;;;;5023389;28;20041;-58
2022/03/17 12:06:15;;;;;;;5.80;1.33;;;18.60;57.80;;;;;;5026940;28;20025;-58
2022/03/17 12:08:41;;;;;;;4.43;1.55;;;18.60;57.70;;;;;;5033464;28;20162;-58
2022/03/17 12:11:18;;;;;;;4.07;1.40;;;18.60;57.60;;;;;;5037686;28;20041;-58
2022/03/17 12:14:03;;;;;;;4.53;1.27;;;18.70;57.60;;;;;;5032510;28;20061;-58
2022/03/17 12:16:40;;;;;;;3.75;1.30;;;18.70;57.50;;;;;;5026135;28;20136;-58
2022/03/17 12:19:06;;;;;;;3.88;1.30;;;18.70;57.40;;;;;;5019970;28;20029;-58
2022/03/17 12:21:58;;;;;;;4.30;1.30;;;18.80;57.40;;;;;;5037190;28;20044;-58
2022/03/17 12:24:45;;;;;;;2.88;1.20;;;18.80;57.30;;;;;;5030052;28;20041;-58
2022/03/17 12:27:30;;;;;;;3.67;1.20;;;18.80;57.30;;;;;;5037463;28;20026;-58
2022/03/17 12:30:08;;;;;;;2.95;1.33;;;18.90;57.20;;;;;;5033363;28;20108;-58
2022/03/17 12:32:40;;;;;;;3.75;1.33;;;18.90;57.10;;;;;;5029946;28;20046;-58
2022/03/17 12:35:08;;;;;;;4.30;1.50;;;18.90;57.10;;;;;;5028813;28;20087;-58
2022/03/17 12:37:34;;;;;;;4.07;1.30;;;19.00;57.00;;;;;;5028338;28;20068;-58
2022/03/17 12:40:02;;;;;;;3.38;1.33;;;19.00;57.00;;;;;;5029664;28;20053;-58
2022/03/17 12:42:32;;;;;;;3.55;1.35;;;19.00;56.90;;;;;;5030953;28;20068;-58
2022/03/17 12:45:02;;;;;;;3.15;1.33;;;19.10;56.90;;;;;;5029173;28;20030;-58
2022/03/17 12:47:29;;;;;;;3.60;1.30;;;19.10;56.80;;;;;;5028857;28;20091;-58
2022/03/17 12:49:55;;;;;;;4.10;1.40;;;19.10;56.70;;;;;;5026222;28;20036;-58
2022/03/17 12:52:24;;;;;;;4.22;1.45;;;19.20;56.70;;;;;;5029091;28;20136;-58
2022/03/17 12:54:52;;;;;;;3.40;1.20;;;19.20;56.60;;;;;;5029143;28;20033;-59
2022/03/17 12:57:18;;;;;;;3.78;1.20;;;19.20;56.60;;;;;;5028053;28;20041;-58
2022/03/17 12:59:44;;;;;;;3.53;1.30;;;19.30;56.50;;;;;;5028386;28;20030;-58
2022/03/17 13:02:12;;;;;;;4.22;1.42;;;19.30;56.40;;;;;;5025856;28;20030;-59
2022/03/17 13:04:39;;;;;;;2.70;1.20;;;19.30;56.30;;;;;;5060566;28;20029;-58